Time,TemperatureF,DewpointF,PressureIn,WindDirection,WindDirectionDegrees,WindSpeedMPH,WindSpeedGustMPH,Humidity,HourlyPrecipIn,Conditions,Clouds,dailyrainin,SoftwareType,DateUTC
2013-05-31 00:02:00,55.9,52.7,30.21,WSW,258,2.0,6.0,89,0.00,,,0.00,meteohub,2013-05-30 23:02:00,
2013-05-31 00:07:00,55.9,52.7,30.21,WSW,239,6.0,6.0,89,0.00,,,0.00,meteohub,2013-05-30 23:07:00,
2013-05-31 00:12:00,55.9,52.7,30.21,West,260,2.0,6.0,89,0.00,,,0.00,meteohub,2013-05-30 23:12:00,
2013-05-31 00:17:00,55.9,52.7,30.21,WSW,254,0.0,6.0,89,0.00,,,0.00,meteohub,2013-05-30 23:17:00,
2013-05-31 00:22:00,55.9,52.7,30.21,West,261,2.0,6.0,89,0.00,,,0.00,meteohub,2013-05-30 23:22:00,
2013-05-31 00:27:00,55.9,52.7,30.21,WSW,248,2.0,6.0,89,0.00,,,0.00,meteohub,2013-05-30 23:27:00,
2013-05-31 00:32:00,55.9,52.7,30.21,SW,236,0.0,8.0,89,0.00,,,0.00,meteohub,2013-05-30 23:32:00,
2013-05-31 00:37:00,55.9,52.7,30.21,WSW,247,0.0,8.0,89,0.00,,,0.00,meteohub,2013-05-30 23:37:00,
2013-05-31 00:42:00,55.9,52.7,30.21,WNW,290,1.0,8.0,89,0.00,,,0.00,meteohub,2013-05-30 23:42:00,
2013-05-31 00:47:00,55.9,53.1,30.20,WSW,242,2.0,6.0,90,0.00,,,0.00,meteohub,2013-05-30 23:47:00,
2013-05-31 00:52:00,55.9,53.1,30.20,WSW,247,0.0,5.0,90,0.00,,,0.00,meteohub,2013-05-30 23:52:00,
2013-05-31 00:57:00,55.8,52.9,30.20,WSW,246,0.0,5.0,90,0.00,,,0.00,meteohub,2013-05-30 23:57:00,
2013-05-31 01:02:00,55.9,53.1,30.20,SW,219,2.0,5.0,90,0.00,,,0.00,meteohub,2013-05-31 00:02:00,
2013-05-31 01:07:00,55.8,52.9,30.20,WSW,256,0.0,5.0,90,0.00,,,0.00,meteohub,2013-05-31 00:07:00,
2013-05-31 01:12:00,55.8,52.9,30.20,SW,216,5.0,5.0,90,0.00,,,0.00,meteohub,2013-05-31 00:12:00,
2013-05-31 01:17:00,55.8,52.9,30.20,SW,231,1.0,6.0,90,0.00,,,0.00,meteohub,2013-05-31 00:17:00,
2013-05-31 01:22:00,55.8,53.2,30.20,SW,231,1.0,6.0,91,0.00,,,0.00,meteohub,2013-05-31 00:22:00,
2013-05-31 01:27:00,55.8,53.2,30.20,WSW,254,2.0,6.0,91,0.00,,,0.00,meteohub,2013-05-31 00:27:00,
2013-05-31 01:32:00,55.8,53.2,30.20,West,269,4.0,5.0,91,0.00,,,0.00,meteohub,2013-05-31 00:32:00,
2013-05-31 01:37:00,55.8,53.2,30.20,West,268,4.0,6.0,91,0.00,,,0.00,meteohub,2013-05-31 00:37:00,
2013-05-31 01:42:00,55.8,53.2,30.20,WSW,257,1.0,6.0,91,0.00,,,0.00,meteohub,2013-05-31 00:42:00,
2013-05-31 01:47:00,55.8,53.2,30.20,WSW,257,2.0,6.0,91,0.00,,,0.00,meteohub,2013-05-31 00:47:00,
2013-05-31 01:52:00,55.6,53.1,30.20,West,259,2.0,6.0,91,0.00,,,0.00,meteohub,2013-05-31 00:52:00,
2013-05-31 01:57:00,55.8,53.2,30.20,West,259,2.0,6.0,91,0.00,,,0.00,meteohub,2013-05-31 00:57:00,
2013-05-31 02:02:00,55.8,53.2,30.20,WNW,282,1.0,6.0,91,0.00,,,0.00,meteohub,2013-05-31 01:02:00,
2013-05-31 02:07:00,55.6,53.2,30.20,West,276,0.0,5.0,92,0.00,,,0.00,meteohub,2013-05-31 01:07:00,
2013-05-31 02:12:00,55.6,53.2,30.20,West,267,1.0,5.0,92,0.00,,,0.00,meteohub,2013-05-31 01:12:00,
2013-05-31 02:17:00,55.6,53.2,30.20,WSW,245,5.0,5.0,92,0.00,,,0.00,meteohub,2013-05-31 01:17:00,
2013-05-31 02:22:00,55.6,53.2,30.20,SW,234,2.0,9.0,92,0.00,,,0.00,meteohub,2013-05-31 01:22:00,
2013-05-31 02:27:00,55.4,53.1,30.20,WSW,254,0.0,9.0,92,0.00,,,0.00,meteohub,2013-05-31 01:27:00,
2013-05-31 02:32:00,55.2,52.9,30.20,WSW,258,4.0,9.0,92,0.00,,,0.00,meteohub,2013-05-31 01:32:00,
2013-05-31 02:37:00,55.2,52.9,30.20,WSW,251,0.0,6.0,92,0.00,,,0.00,meteohub,2013-05-31 01:37:00,
2013-05-31 02:42:00,55.2,52.9,30.20,SW,233,4.0,6.0,92,0.00,,,0.00,meteohub,2013-05-31 01:42:00,
2013-05-31 02:47:00,55.4,53.1,30.20,SW,234,0.0,5.0,92,0.00,,,0.00,meteohub,2013-05-31 01:47:00,
2013-05-31 02:52:00,55.2,52.9,30.20,SW,234,0.0,5.0,92,0.00,,,0.00,meteohub,2013-05-31 01:52:00,
2013-05-31 02:57:00,55.2,52.9,30.20,WSW,242,1.0,5.0,92,0.00,,,0.00,meteohub,2013-05-31 01:57:00,
2013-05-31 03:02:00,55.4,53.1,30.20,WSW,238,2.0,5.0,92,0.00,,,0.00,meteohub,2013-05-31 02:02:00,
2013-05-31 03:07:00,55.6,53.2,30.19,WSW,240,2.0,5.0,92,0.00,,,0.00,meteohub,2013-05-31 02:07:00,
2013-05-31 03:12:00,55.6,53.2,30.19,WSW,242,0.0,6.0,92,0.00,,,0.00,meteohub,2013-05-31 02:12:00,
2013-05-31 03:17:00,55.6,53.2,30.19,WSW,243,1.0,6.0,92,0.00,,,0.00,meteohub,2013-05-31 02:17:00,
2013-05-31 03:22:00,55.4,53.1,30.19,SW,236,1.0,6.0,92,0.00,,,0.00,meteohub,2013-05-31 02:22:00,
2013-05-31 03:27:00,55.2,52.9,30.19,WSW,242,1.0,4.0,92,0.00,,,0.00,meteohub,2013-05-31 02:27:00,
2013-05-31 03:32:00,55.4,53.1,30.19,WSW,257,0.0,4.0,92,0.00,,,0.00,meteohub,2013-05-31 02:32:00,
2013-05-31 03:37:00,55.4,53.1,30.19,WSW,250,1.0,5.0,92,0.00,,,0.00,meteohub,2013-05-31 02:37:00,
2013-05-31 03:42:00,55.6,53.2,30.19,WSW,249,4.0,5.0,92,0.00,,,0.00,meteohub,2013-05-31 02:42:00,
2013-05-31 03:47:00,55.6,53.2,30.19,WSW,249,0.0,5.0,92,0.00,,,0.00,meteohub,2013-05-31 02:47:00,
2013-05-31 03:52:00,55.6,53.2,30.19,West,267,1.0,5.0,92,0.00,,,0.00,meteohub,2013-05-31 02:52:00,
2013-05-31 03:57:00,55.6,53.2,30.19,West,273,1.0,6.0,92,0.00,,,0.00,meteohub,2013-05-31 02:57:00,
2013-05-31 04:02:00,55.6,53.2,30.19,West,273,1.0,6.0,92,0.00,,,0.00,meteohub,2013-05-31 03:02:00,
2013-05-31 04:07:00,55.6,53.2,30.20,West,273,1.0,6.0,92,0.00,,,0.00,meteohub,2013-05-31 03:07:00,
2013-05-31 04:12:00,55.6,53.2,30.20,West,273,1.0,5.0,92,0.00,,,0.00,meteohub,2013-05-31 03:12:00,
2013-05-31 04:17:00,55.6,53.2,30.20,West,274,4.0,5.0,92,0.00,,,0.00,meteohub,2013-05-31 03:17:00,
2013-05-31 04:22:00,55.6,53.2,30.20,WNW,288,5.0,6.0,92,0.00,,,0.00,meteohub,2013-05-31 03:22:00,
2013-05-31 04:27:00,55.6,53.2,30.20,WNW,288,0.0,6.0,92,0.00,,,0.00,meteohub,2013-05-31 03:27:00,
2013-05-31 04:32:00,55.6,53.2,30.20,WNW,288,4.0,6.0,92,0.00,,,0.00,meteohub,2013-05-31 03:32:00,
2013-05-31 04:37:00,55.8,53.4,30.20,WNW,288,1.0,6.0,92,0.00,,,0.00,meteohub,2013-05-31 03:37:00,
2013-05-31 04:42:00,55.8,53.4,30.20,WNW,288,2.0,5.0,92,0.00,,,0.00,meteohub,2013-05-31 03:42:00,
2013-05-31 04:47:00,55.8,53.2,30.20,WNW,288,0.0,5.0,91,0.00,,,0.00,meteohub,2013-05-31 03:47:00,
2013-05-31 04:52:00,55.8,53.2,30.21,WNW,288,4.0,5.0,91,0.00,,,0.00,meteohub,2013-05-31 03:52:00,
2013-05-31 04:57:00,55.8,53.2,30.21,WNW,288,1.0,5.0,91,0.00,,,0.00,meteohub,2013-05-31 03:57:00,
2013-05-31 05:02:00,55.8,53.2,30.20,WNW,288,2.0,5.0,91,0.00,,,0.00,meteohub,2013-05-31 04:02:00,
2013-05-31 05:07:00,55.8,53.2,30.20,WNW,288,1.0,5.0,91,0.00,,,0.00,meteohub,2013-05-31 04:07:00,
2013-05-31 05:12:00,55.8,53.2,30.20,West,276,2.0,6.0,91,0.00,,,0.00,meteohub,2013-05-31 04:12:00,
2013-05-31 05:17:00,55.8,53.2,30.20,West,276,4.0,6.0,91,0.00,,,0.00,meteohub,2013-05-31 04:17:00,
2013-05-31 05:22:00,55.8,53.2,30.20,West,276,4.0,6.0,91,0.00,,,0.00,meteohub,2013-05-31 04:22:00,
2013-05-31 05:27:00,55.8,53.2,30.20,West,276,1.0,5.0,91,0.00,,,0.00,meteohub,2013-05-31 04:27:00,
2013-05-31 05:32:00,55.8,52.9,30.20,West,276,1.0,5.0,90,0.00,,,0.00,meteohub,2013-05-31 04:32:00,
2013-05-31 05:37:00,55.8,52.9,30.20,NNW,331,0.0,5.0,90,0.00,,,0.00,meteohub,2013-05-31 04:37:00,
2013-05-31 05:42:00,55.8,52.9,30.20,NNW,331,0.0,5.0,90,0.00,,,0.00,meteohub,2013-05-31 04:42:00,
2013-05-31 05:47:00,55.6,52.7,30.19,NNW,344,5.0,5.0,90,0.00,,,0.00,meteohub,2013-05-31 04:47:00,
2013-05-31 05:52:00,55.4,52.2,30.19,North,355,1.0,6.0,89,0.00,,,0.00,meteohub,2013-05-31 04:52:00,
2013-05-31 05:57:00,55.2,52.0,30.19,North,355,2.0,6.0,89,0.00,,,0.00,meteohub,2013-05-31 04:57:00,
2013-05-31 06:02:00,55.2,52.0,30.19,North,355,0.0,6.0,89,0.00,,,0.00,meteohub,2013-05-31 05:02:00,
2013-05-31 06:07:00,55.2,52.0,30.19,North,355,0.0,4.0,89,0.00,,,0.00,meteohub,2013-05-31 05:07:00,
2013-05-31 06:12:00,55.2,52.0,30.20,North,355,2.0,4.0,89,0.00,,,0.00,meteohub,2013-05-31 05:12:00,
2013-05-31 06:17:00,55.2,52.0,30.20,North,355,4.0,5.0,89,0.00,,,0.00,meteohub,2013-05-31 05:17:00,
2013-05-31 06:22:00,55.0,51.6,30.21,North,355,1.0,5.0,88,0.00,,,0.00,meteohub,2013-05-31 05:22:00,
2013-05-31 06:27:00,55.2,51.8,30.20,North,355,2.0,5.0,88,0.00,,,0.00,meteohub,2013-05-31 05:27:00,
2013-05-31 06:32:00,55.2,51.8,30.21,North,355,2.0,5.0,88,0.00,,,0.00,meteohub,2013-05-31 05:32:00,
2013-05-31 06:37:00,55.2,51.4,30.21,North,355,1.0,4.0,87,0.00,,,0.00,meteohub,2013-05-31 05:37:00,
2013-05-31 06:42:00,55.2,51.4,30.21,North,355,4.0,5.0,87,0.00,,,0.00,meteohub,2013-05-31 05:42:00,
2013-05-31 06:47:00,55.2,51.4,30.21,North,355,1.0,6.0,87,0.00,,,0.00,meteohub,2013-05-31 05:47:00,
2013-05-31 06:52:00,55.2,51.4,30.22,NNW,341,4.0,6.0,87,0.00,,,0.00,meteohub,2013-05-31 05:52:00,
2013-05-31 06:57:00,55.2,51.4,30.22,NNW,339,4.0,8.0,87,0.00,,,0.00,meteohub,2013-05-31 05:57:00,
2013-05-31 07:02:00,55.0,51.3,30.22,NNW,338,2.0,8.0,87,0.00,,,0.00,meteohub,2013-05-31 06:02:00,
2013-05-31 07:07:00,55.0,50.9,30.22,NNW,329,2.0,8.0,86,0.00,,,0.00,meteohub,2013-05-31 06:07:00,
2013-05-31 07:12:00,55.0,50.9,30.22,NNW,335,2.0,9.0,86,0.00,,,0.00,meteohub,2013-05-31 06:12:00,
2013-05-31 07:17:00,55.0,50.9,30.22,NNW,336,4.0,9.0,86,0.00,,,0.00,meteohub,2013-05-31 06:17:00,
2013-05-31 07:22:00,55.0,50.9,30.22,NNW,333,5.0,9.0,86,0.00,,,0.00,meteohub,2013-05-31 06:22:00,
2013-05-31 07:27:00,54.9,50.7,30.22,NNW,327,4.0,10.0,86,0.00,,,0.00,meteohub,2013-05-31 06:27:00,
2013-05-31 07:32:00,54.9,50.4,30.22,NW,326,6.0,10.0,85,0.00,,,0.00,meteohub,2013-05-31 06:32:00,
2013-05-31 07:37:00,54.9,50.4,30.22,NNW,346,8.0,10.0,85,0.00,,,0.00,meteohub,2013-05-31 06:37:00,
2013-05-31 07:42:00,54.7,50.5,30.23,North,355,8.0,10.0,86,0.00,,,0.00,meteohub,2013-05-31 06:42:00,
2013-05-31 07:47:00,54.7,50.5,30.23,NW,315,5.0,10.0,86,0.00,,,0.00,meteohub,2013-05-31 06:47:00,
2013-05-31 07:52:00,54.7,50.5,30.23,NNW,337,11.0,11.0,86,0.00,,,0.00,meteohub,2013-05-31 06:52:00,
2013-05-31 07:57:00,54.3,50.2,30.23,NNW,345,6.0,11.0,86,0.00,,,0.00,meteohub,2013-05-31 06:57:00,
2013-05-31 08:02:00,54.3,49.8,30.23,NNW,342,5.0,11.0,85,0.00,,,0.00,meteohub,2013-05-31 07:02:00,
2013-05-31 08:07:00,54.3,49.8,30.23,NNW,331,1.0,13.0,85,0.00,,,0.00,meteohub,2013-05-31 07:07:00,
2013-05-31 08:12:00,54.3,49.6,30.24,NW,325,4.0,13.0,84,0.00,,,0.00,meteohub,2013-05-31 07:12:00,
2013-05-31 08:17:00,54.1,49.1,30.24,NW,311,6.0,13.0,83,0.00,,,0.00,meteohub,2013-05-31 07:17:00,
2013-05-31 08:22:00,54.1,49.1,30.24,WNW,294,8.0,13.0,83,0.00,,,0.00,meteohub,2013-05-31 07:22:00,
2013-05-31 08:27:00,54.1,49.1,30.25,WNW,284,5.0,13.0,83,0.00,,,0.00,meteohub,2013-05-31 07:27:00,
2013-05-31 08:32:00,54.1,49.1,30.25,North,349,6.0,10.0,83,0.00,,,0.00,meteohub,2013-05-31 07:32:00,
2013-05-31 08:37:00,54.1,49.1,30.25,NW,322,4.0,13.0,83,0.00,,,0.00,meteohub,2013-05-31 07:37:00,
2013-05-31 08:42:00,54.1,49.1,30.25,NNW,348,6.0,13.0,83,0.00,,,0.00,meteohub,2013-05-31 07:42:00,
2013-05-31 08:47:00,54.1,49.1,30.25,NW,321,8.0,13.0,83,0.00,,,0.00,meteohub,2013-05-31 07:47:00,
2013-05-31 08:52:00,54.1,49.1,30.25,North,355,2.0,13.0,83,0.00,,,0.00,meteohub,2013-05-31 07:52:00,
2013-05-31 08:57:00,54.1,49.1,30.25,NNW,346,8.0,13.0,83,0.00,,,0.00,meteohub,2013-05-31 07:57:00,
2013-05-31 09:02:00,54.5,49.1,30.25,NNW,330,5.0,13.0,82,0.00,,,0.00,meteohub,2013-05-31 08:02:00,
2013-05-31 09:07:00,54.5,48.7,30.25,NNW,328,9.0,14.0,81,0.00,,,0.00,meteohub,2013-05-31 08:07:00,
2013-05-31 09:12:00,54.9,49.1,30.25,North,5,8.0,14.0,81,0.00,,,0.00,meteohub,2013-05-31 08:12:00,
2013-05-31 09:17:00,55.0,48.6,30.25,North,355,8.0,14.0,79,0.00,,,0.00,meteohub,2013-05-31 08:17:00,
2013-05-31 09:22:00,55.2,48.7,30.25,NW,313,11.0,13.0,79,0.00,,,0.00,meteohub,2013-05-31 08:22:00,
2013-05-31 09:27:00,55.2,48.6,30.25,NW,319,4.0,11.0,78,0.00,,,0.00,meteohub,2013-05-31 08:27:00,
2013-05-31 09:32:00,55.4,48.4,30.25,NW,315,10.0,11.0,77,0.00,,,0.00,meteohub,2013-05-31 08:32:00,
2013-05-31 09:37:00,55.2,48.6,30.26,NNW,333,2.0,11.0,78,0.00,,,0.00,meteohub,2013-05-31 08:37:00,
2013-05-31 09:42:00,55.4,48.9,30.26,North,5,4.0,13.0,79,0.00,,,0.00,meteohub,2013-05-31 08:42:00,
2013-05-31 09:47:00,55.2,48.6,30.26,North,9,10.0,13.0,78,0.00,,,0.00,meteohub,2013-05-31 08:47:00,
2013-05-31 09:52:00,55.4,48.4,30.26,NNW,329,9.0,11.0,77,0.00,,,0.00,meteohub,2013-05-31 08:52:00,
2013-05-31 09:57:00,55.2,48.2,30.26,NNW,335,5.0,13.0,77,0.00,,,0.00,meteohub,2013-05-31 08:57:00,
2013-05-31 10:02:00,55.4,48.4,30.26,NW,319,6.0,13.0,77,0.00,,,0.00,meteohub,2013-05-31 09:02:00,
2013-05-31 10:07:00,55.9,48.9,30.26,NNW,348,2.0,13.0,77,0.00,,,0.00,meteohub,2013-05-31 09:07:00,
2013-05-31 10:12:00,56.1,48.7,30.26,NW,310,6.0,11.0,76,0.00,,,0.00,meteohub,2013-05-31 09:12:00,
2013-05-31 10:17:00,56.7,49.5,30.26,WNW,294,6.0,10.0,77,0.00,,,0.00,meteohub,2013-05-31 09:17:00,
2013-05-31 10:22:00,56.7,48.7,30.26,NW,314,6.0,10.0,75,0.00,,,0.00,meteohub,2013-05-31 09:22:00,
2013-05-31 10:27:00,56.5,48.7,30.26,NW,318,5.0,13.0,75,0.00,,,0.00,meteohub,2013-05-31 09:27:00,
2013-05-31 10:32:00,56.1,48.7,30.27,North,350,2.0,13.0,76,0.00,,,0.00,meteohub,2013-05-31 09:32:00,
2013-05-31 10:37:00,55.9,48.6,30.27,NW,317,9.0,13.0,76,0.00,,,0.00,meteohub,2013-05-31 09:37:00,
2013-05-31 10:42:00,55.8,48.7,30.26,North,355,2.0,11.0,77,0.00,,,0.00,meteohub,2013-05-31 09:42:00,
2013-05-31 10:47:00,55.8,48.4,30.26,North,350,8.0,10.0,76,0.00,,,0.00,meteohub,2013-05-31 09:47:00,
2013-05-31 10:57:00,55.9,48.6,30.27,NNW,332,8.0,13.0,76,0.00,,,0.00,meteohub,2013-05-31 09:57:00,
2013-05-31 11:02:00,56.1,48.4,30.26,WNW,300,8.0,10.0,75,0.00,,,0.00,meteohub,2013-05-31 10:02:00,
2013-05-31 11:07:00,56.1,47.7,30.27,North,355,11.0,11.0,73,0.00,,,0.00,meteohub,2013-05-31 10:07:00,
2013-05-31 11:12:00,56.1,47.3,30.27,NNW,344,6.0,13.0,72,0.00,,,0.00,meteohub,2013-05-31 10:12:00,
2013-05-31 11:17:00,56.1,46.8,30.27,NW,309,8.0,13.0,71,0.00,,,0.00,meteohub,2013-05-31 10:17:00,
2013-05-31 11:22:00,56.5,47.1,30.27,NW,314,6.0,13.0,71,0.00,,,0.00,meteohub,2013-05-31 10:22:00,
2013-05-31 11:27:00,56.3,46.9,30.27,WNW,298,5.0,13.0,71,0.00,,,0.00,meteohub,2013-05-31 10:27:00,
2013-05-31 11:32:00,56.7,47.7,30.27,NNW,345,8.0,13.0,72,0.00,,,0.00,meteohub,2013-05-31 10:32:00,
2013-05-31 11:37:00,56.8,48.2,30.27,NNW,341,5.0,14.0,73,0.00,,,0.00,meteohub,2013-05-31 10:37:00,
2013-05-31 11:42:00,57.2,47.8,30.27,NNW,340,6.0,14.0,71,0.00,,,0.00,meteohub,2013-05-31 10:42:00,
2013-05-31 11:47:00,57.9,47.8,30.27,NW,326,6.0,14.0,69,0.00,,,0.00,meteohub,2013-05-31 10:47:00,
2013-05-31 11:52:00,58.6,48.9,30.27,NW,315,5.0,14.0,70,0.00,,,0.00,meteohub,2013-05-31 10:52:00,
2013-05-31 11:57:00,58.5,48.0,30.27,NNW,331,8.0,14.0,68,0.00,,,0.00,meteohub,2013-05-31 10:57:00,
2013-05-31 12:02:00,58.1,48.0,30.27,NNW,333,6.0,15.0,69,0.00,,,0.00,meteohub,2013-05-31 11:02:00,
2013-05-31 12:07:00,58.1,48.7,30.27,NNW,344,10.0,15.0,71,0.00,,,0.00,meteohub,2013-05-31 11:07:00,
2013-05-31 12:12:00,57.6,48.2,30.28,NNW,336,5.0,15.0,71,0.00,,,0.00,meteohub,2013-05-31 11:12:00,
2013-05-31 12:17:00,57.4,48.4,30.28,North,349,8.0,14.0,72,0.00,,,0.00,meteohub,2013-05-31 11:17:00,
2013-05-31 12:22:00,57.4,48.4,30.28,NNW,334,9.0,14.0,72,0.00,,,0.00,meteohub,2013-05-31 11:22:00,
2013-05-31 12:27:00,57.6,48.6,30.28,WNW,289,8.0,14.0,72,0.00,,,0.00,meteohub,2013-05-31 11:27:00,
2013-05-31 12:32:00,57.2,48.6,30.27,WNW,299,8.0,14.0,73,0.00,,,0.00,meteohub,2013-05-31 11:32:00,
2013-05-31 12:37:00,57.7,48.4,30.27,NW,316,6.0,14.0,71,0.00,,,0.00,meteohub,2013-05-31 11:37:00,
2013-05-31 12:42:00,57.6,47.8,30.28,NNW,336,6.0,15.0,70,0.00,,,0.00,meteohub,2013-05-31 11:42:00,
2013-05-31 12:47:00,58.3,47.8,30.28,NNW,331,10.0,15.0,68,0.00,,,0.00,meteohub,2013-05-31 11:47:00,
2013-05-31 12:52:00,58.6,48.2,30.28,NW,314,4.0,16.0,68,0.00,,,0.00,meteohub,2013-05-31 11:52:00,
2013-05-31 12:57:00,60.3,49.3,30.28,NNW,342,5.0,16.0,67,0.00,,,0.00,meteohub,2013-05-31 11:57:00,
2013-05-31 13:02:00,61.2,48.9,30.28,West,277,10.0,16.0,64,0.00,,,0.00,meteohub,2013-05-31 12:02:00,
2013-05-31 13:07:00,60.3,48.0,30.28,WNW,287,8.0,15.0,64,0.00,,,0.00,meteohub,2013-05-31 12:07:00,
2013-05-31 13:12:00,60.4,48.6,30.28,NW,313,8.0,15.0,65,0.00,,,0.00,meteohub,2013-05-31 12:12:00,
2013-05-31 13:17:00,60.3,47.7,30.27,NNW,333,8.0,13.0,63,0.00,,,0.00,meteohub,2013-05-31 12:17:00,
2013-05-31 13:22:00,61.2,48.0,30.28,NW,322,8.0,14.0,62,0.00,,,0.00,meteohub,2013-05-31 12:22:00,
2013-05-31 13:27:00,61.3,48.2,30.27,NNW,335,9.0,14.0,62,0.00,,,0.00,meteohub,2013-05-31 12:27:00,
2013-05-31 13:32:00,61.5,47.5,30.27,NW,325,6.0,13.0,60,0.00,,,0.00,meteohub,2013-05-31 12:32:00,
2013-05-31 13:37:00,61.3,46.4,30.28,North,350,4.0,15.0,58,0.00,,,0.00,meteohub,2013-05-31 12:37:00,
2013-05-31 13:42:00,61.5,47.5,30.28,NNW,341,10.0,15.0,60,0.00,,,0.00,meteohub,2013-05-31 12:42:00,
2013-05-31 13:47:00,62.4,47.8,30.28,NNW,342,8.0,15.0,59,0.00,,,0.00,meteohub,2013-05-31 12:47:00,
2013-05-31 13:52:00,62.1,49.3,30.28,North,10,10.0,18.0,63,0.00,,,0.00,meteohub,2013-05-31 12:52:00,
2013-05-31 13:57:00,61.0,47.8,30.28,NW,315,8.0,18.0,62,0.00,,,0.00,meteohub,2013-05-31 12:57:00,
2013-05-31 14:02:00,60.8,48.2,30.28,North,0,6.0,18.0,63,0.00,,,0.00,meteohub,2013-05-31 13:02:00,
2013-05-31 14:07:00,61.3,47.8,30.28,North,350,5.0,16.0,61,0.00,,,0.00,meteohub,2013-05-31 13:07:00,
2013-05-31 14:12:00,61.0,46.6,30.28,North,0,5.0,15.0,59,0.00,,,0.00,meteohub,2013-05-31 13:12:00,
2013-05-31 14:17:00,61.2,48.4,30.28,NW,325,5.0,16.0,63,0.00,,,0.00,meteohub,2013-05-31 13:17:00,
2013-05-31 14:22:00,61.2,48.0,30.28,WNW,297,8.0,16.0,62,0.00,,,0.00,meteohub,2013-05-31 13:22:00,
2013-05-31 14:27:00,61.2,47.1,30.28,NNW,338,6.0,16.0,60,0.00,,,0.00,meteohub,2013-05-31 13:27:00,
2013-05-31 14:32:00,61.0,47.5,30.28,NNW,331,6.0,16.0,61,0.00,,,0.00,meteohub,2013-05-31 13:32:00,
2013-05-31 14:37:00,60.8,46.8,30.28,North,5,10.0,16.0,60,0.00,,,0.00,meteohub,2013-05-31 13:37:00,
2013-05-31 14:42:00,60.6,46.6,30.28,NNW,331,6.0,14.0,60,0.00,,,0.00,meteohub,2013-05-31 13:42:00,
2013-05-31 14:47:00,61.0,46.6,30.28,NNW,327,6.0,14.0,59,0.00,,,0.00,meteohub,2013-05-31 13:47:00,
2013-05-31 14:52:00,61.0,46.6,30.28,North,9,5.0,14.0,59,0.00,,,0.00,meteohub,2013-05-31 13:52:00,
2013-05-31 14:57:00,61.0,46.0,30.28,NW,313,4.0,14.0,58,0.00,,,0.00,meteohub,2013-05-31 13:57:00,
2013-05-31 15:02:00,61.0,45.7,30.28,WNW,286,5.0,14.0,57,0.00,,,0.00,meteohub,2013-05-31 14:02:00,
2013-05-31 15:07:00,60.6,46.2,30.28,NW,319,5.0,14.0,59,0.00,,,0.00,meteohub,2013-05-31 14:07:00,
2013-05-31 15:12:00,61.0,46.6,30.28,NW,320,9.0,14.0,59,0.00,,,0.00,meteohub,2013-05-31 14:12:00,
2013-05-31 15:17:00,61.2,47.1,30.29,WNW,296,4.0,15.0,60,0.00,,,0.00,meteohub,2013-05-31 14:17:00,
2013-05-31 15:22:00,60.6,47.1,30.29,NW,306,8.0,15.0,61,0.00,,,0.00,meteohub,2013-05-31 14:22:00,
2013-05-31 15:27:00,60.3,47.1,30.29,NNW,331,9.0,15.0,62,0.00,,,0.00,meteohub,2013-05-31 14:27:00,
2013-05-31 15:32:00,59.9,47.3,30.29,West,269,9.0,15.0,63,0.00,,,0.00,meteohub,2013-05-31 14:32:00,
2013-05-31 15:37:00,59.4,46.8,30.29,WNW,287,5.0,15.0,63,0.00,,,0.00,meteohub,2013-05-31 14:37:00,
2013-05-31 15:42:00,60.1,46.6,30.29,NNW,342,6.0,15.0,61,0.00,,,0.00,meteohub,2013-05-31 14:42:00,
2013-05-31 15:47:00,60.3,46.8,30.29,NW,317,6.0,15.0,61,0.00,,,0.00,meteohub,2013-05-31 14:47:00,
2013-05-31 15:52:00,60.4,46.9,30.29,North,5,10.0,15.0,61,0.00,,,0.00,meteohub,2013-05-31 14:52:00,
2013-05-31 15:57:00,61.5,46.6,30.29,NW,314,5.0,16.0,58,0.00,,,0.00,meteohub,2013-05-31 14:57:00,
2013-05-31 16:02:00,60.4,45.7,30.29,NNW,336,9.0,16.0,58,0.00,,,0.00,meteohub,2013-05-31 15:02:00,
2013-05-31 16:07:00,61.3,46.4,30.29,NW,305,4.0,15.0,58,0.00,,,0.00,meteohub,2013-05-31 15:07:00,
2013-05-31 16:12:00,60.6,45.7,30.29,NW,326,9.0,15.0,58,0.00,,,0.00,meteohub,2013-05-31 15:12:00,
2013-05-31 16:17:00,60.4,46.0,30.29,NNW,341,11.0,15.0,59,0.00,,,0.00,meteohub,2013-05-31 15:17:00,
2013-05-31 16:22:00,60.3,45.5,30.29,NW,315,2.0,15.0,58,0.00,,,0.00,meteohub,2013-05-31 15:22:00,
2013-05-31 16:27:00,60.4,45.1,30.29,NNW,342,13.0,14.0,57,0.00,,,0.00,meteohub,2013-05-31 15:27:00,
2013-05-31 16:32:00,60.1,44.4,30.29,NNE,13,5.0,16.0,56,0.00,,,0.00,meteohub,2013-05-31 15:32:00,
2013-05-31 16:37:00,60.3,44.1,30.29,NW,311,5.0,16.0,55,0.00,,,0.00,meteohub,2013-05-31 15:37:00,
2013-05-31 16:42:00,59.9,44.6,30.29,West,281,6.0,16.0,57,0.00,,,0.00,meteohub,2013-05-31 15:42:00,
2013-05-31 16:47:00,59.9,44.6,30.29,NNW,335,4.0,15.0,57,0.00,,,0.00,meteohub,2013-05-31 15:47:00,
2013-05-31 16:52:00,60.4,44.6,30.29,NW,315,8.0,15.0,56,0.00,,,0.00,meteohub,2013-05-31 15:52:00,
2013-05-31 16:57:00,61.0,45.1,30.29,West,277,5.0,15.0,56,0.00,,,0.00,meteohub,2013-05-31 15:57:00,
2013-05-31 17:02:00,62.1,44.8,30.30,North,355,8.0,15.0,53,0.00,,,0.00,meteohub,2013-05-31 16:02:00,
2013-05-31 17:07:00,61.7,43.3,30.30,NNW,328,13.0,13.0,51,0.00,,,0.00,meteohub,2013-05-31 16:07:00,
2013-05-31 17:12:00,62.2,44.4,30.29,NNW,335,6.0,15.0,52,0.00,,,0.00,meteohub,2013-05-31 16:12:00,
2013-05-31 17:17:00,61.9,43.5,30.29,North,351,6.0,15.0,51,0.00,,,0.00,meteohub,2013-05-31 16:17:00,
2013-05-31 17:22:00,61.9,43.0,30.29,NNW,348,5.0,15.0,50,0.00,,,0.00,meteohub,2013-05-31 16:22:00,
2013-05-31 17:27:00,62.4,44.1,30.29,NW,313,8.0,13.0,51,0.00,,,0.00,meteohub,2013-05-31 16:27:00,
2013-05-31 17:32:00,61.5,42.6,30.29,NNW,333,10.0,15.0,50,0.00,,,0.00,meteohub,2013-05-31 16:32:00,
2013-05-31 17:37:00,62.8,44.4,30.29,North,9,8.0,15.0,51,0.00,,,0.00,meteohub,2013-05-31 16:37:00,
2013-05-31 17:42:00,61.5,43.7,30.29,North,5,9.0,15.0,52,0.00,,,0.00,meteohub,2013-05-31 16:42:00,
2013-05-31 17:47:00,60.6,43.0,30.29,NNW,340,6.0,15.0,52,0.00,,,0.00,meteohub,2013-05-31 16:47:00,
2013-05-31 17:52:00,60.6,43.9,30.29,NNW,342,5.0,15.0,54,0.00,,,0.00,meteohub,2013-05-31 16:52:00,
2013-05-31 17:57:00,61.0,42.8,30.29,North,350,4.0,15.0,51,0.00,,,0.00,meteohub,2013-05-31 16:57:00,
2013-05-31 18:02:00,61.3,43.5,30.29,West,264,4.0,13.0,52,0.00,,,0.00,meteohub,2013-05-31 17:02:00,
2013-05-31 18:07:00,62.8,44.4,30.30,NNW,332,6.0,13.0,51,0.00,,,0.00,meteohub,2013-05-31 17:07:00,
2013-05-31 18:12:00,62.1,43.7,30.30,NNW,346,5.0,13.0,51,0.00,,,0.00,meteohub,2013-05-31 17:12:00,
2013-05-31 18:17:00,63.1,44.2,30.30,NW,306,9.0,13.0,50,0.00,,,0.00,meteohub,2013-05-31 17:17:00,
2013-05-31 18:22:00,61.9,43.0,30.30,NNE,12,8.0,13.0,50,0.00,,,0.00,meteohub,2013-05-31 17:22:00,
2013-05-31 18:27:00,61.5,42.3,30.30,NNW,342,10.0,15.0,49,0.00,,,0.00,meteohub,2013-05-31 17:27:00,
2013-05-31 18:32:00,61.5,43.2,30.30,WNW,302,4.0,15.0,51,0.00,,,0.00,meteohub,2013-05-31 17:32:00,
2013-05-31 18:37:00,61.7,43.3,30.30,WNW,300,4.0,13.0,51,0.00,,,0.00,meteohub,2013-05-31 17:37:00,
2013-05-31 18:42:00,61.2,43.3,30.30,North,5,1.0,13.0,52,0.00,,,0.00,meteohub,2013-05-31 17:42:00,
2013-05-31 18:47:00,61.5,43.7,30.30,North,355,6.0,13.0,52,0.00,,,0.00,meteohub,2013-05-31 17:47:00,
2013-05-31 18:52:00,61.3,43.0,30.30,North,355,6.0,13.0,51,0.00,,,0.00,meteohub,2013-05-31 17:52:00,
2013-05-31 18:57:00,61.2,43.3,30.30,North,355,10.0,10.0,52,0.00,,,0.00,meteohub,2013-05-31 17:57:00,
2013-05-31 19:02:00,60.6,43.0,30.30,WNW,297,2.0,14.0,52,0.00,,,0.00,meteohub,2013-05-31 18:02:00,
2013-05-31 19:07:00,60.6,43.9,30.30,NNW,341,8.0,14.0,54,0.00,,,0.00,meteohub,2013-05-31 18:07:00,
2013-05-31 19:12:00,61.2,43.9,30.30,WNW,294,8.0,14.0,53,0.00,,,0.00,meteohub,2013-05-31 18:12:00,
2013-05-31 19:17:00,61.0,44.8,30.30,NW,324,8.0,14.0,55,0.00,,,0.00,meteohub,2013-05-31 18:17:00,
2013-05-31 19:22:00,60.3,45.0,30.30,NNW,341,10.0,15.0,57,0.00,,,0.00,meteohub,2013-05-31 18:22:00,
2013-05-31 19:27:00,59.7,44.1,30.30,NNW,339,4.0,16.0,56,0.00,,,0.00,meteohub,2013-05-31 18:27:00,
2013-05-31 19:32:00,59.5,44.2,30.30,NNW,333,8.0,16.0,57,0.00,,,0.00,meteohub,2013-05-31 18:32:00,
2013-05-31 19:37:00,59.7,44.1,30.30,NW,314,5.0,16.0,56,0.00,,,0.00,meteohub,2013-05-31 18:37:00,
2013-05-31 19:42:00,59.4,43.7,30.31,NW,307,9.0,11.0,56,0.00,,,0.00,meteohub,2013-05-31 18:42:00,
2013-05-31 19:47:00,58.6,43.9,30.31,NNW,346,6.0,13.0,58,0.00,,,0.00,meteohub,2013-05-31 18:47:00,
2013-05-31 19:52:00,58.8,44.6,30.31,WNW,301,6.0,13.0,59,0.00,,,0.00,meteohub,2013-05-31 18:52:00,
2013-05-31 19:57:00,58.5,44.2,30.31,NW,316,5.0,13.0,59,0.00,,,0.00,meteohub,2013-05-31 18:57:00,
2013-05-31 20:02:00,58.1,43.9,30.31,WNW,294,6.0,13.0,59,0.00,,,0.00,meteohub,2013-05-31 19:02:00,
2013-05-31 20:07:00,57.9,44.6,30.31,NW,314,8.0,13.0,61,0.00,,,0.00,meteohub,2013-05-31 19:07:00,
2013-05-31 20:12:00,57.6,44.2,30.32,WNW,296,6.0,13.0,61,0.00,,,0.00,meteohub,2013-05-31 19:12:00,
2013-05-31 20:17:00,57.6,44.2,30.32,WNW,283,11.0,13.0,61,0.00,,,0.00,meteohub,2013-05-31 19:17:00,
2013-05-31 20:22:00,57.2,44.2,30.32,NNW,329,1.0,13.0,62,0.00,,,0.00,meteohub,2013-05-31 19:22:00,
2013-05-31 20:27:00,57.2,44.8,30.32,WNW,296,4.0,13.0,63,0.00,,,0.00,meteohub,2013-05-31 19:27:00,
2013-05-31 20:32:00,56.8,44.4,30.32,NW,325,9.0,11.0,63,0.00,,,0.00,meteohub,2013-05-31 19:32:00,
2013-05-31 20:37:00,56.7,44.2,30.32,WNW,298,4.0,11.0,63,0.00,,,0.00,meteohub,2013-05-31 19:37:00,
2013-05-31 20:42:00,56.5,44.1,30.33,NW,316,4.0,9.0,63,0.00,,,0.00,meteohub,2013-05-31 19:42:00,
2013-05-31 20:47:00,56.1,43.7,30.33,WNW,294,6.0,10.0,63,0.00,,,0.00,meteohub,2013-05-31 19:47:00,
2013-05-31 20:52:00,55.9,43.5,30.33,WSW,246,4.0,13.0,63,0.00,,,0.00,meteohub,2013-05-31 19:52:00,
2013-05-31 20:57:00,55.8,43.3,30.33,WNW,300,4.0,13.0,63,0.00,,,0.00,meteohub,2013-05-31 19:57:00,
2013-05-31 21:02:00,55.8,43.3,30.33,NW,304,4.0,13.0,63,0.00,,,0.00,meteohub,2013-05-31 20:02:00,
2013-05-31 21:07:00,55.6,43.2,30.33,WNW,286,5.0,10.0,63,0.00,,,0.00,meteohub,2013-05-31 20:07:00,
2013-05-31 21:12:00,55.2,42.4,30.33,NW,314,6.0,10.0,62,0.00,,,0.00,meteohub,2013-05-31 20:12:00,
2013-05-31 21:17:00,55.0,42.3,30.33,West,276,2.0,10.0,62,0.00,,,0.00,meteohub,2013-05-31 20:17:00,
2013-05-31 21:22:00,54.9,42.1,30.34,WNW,298,1.0,10.0,62,0.00,,,0.00,meteohub,2013-05-31 20:22:00,
2013-05-31 21:27:00,54.7,42.3,30.34,WNW,287,4.0,10.0,63,0.00,,,0.00,meteohub,2013-05-31 20:27:00,
2013-05-31 21:32:00,54.3,42.4,30.34,WNW,284,5.0,9.0,64,0.00,,,0.00,meteohub,2013-05-31 20:32:00,
2013-05-31 21:37:00,54.1,42.6,30.34,WNW,284,4.0,9.0,65,0.00,,,0.00,meteohub,2013-05-31 20:37:00,
2013-05-31 21:42:00,54.0,42.8,30.34,WNW,287,4.0,9.0,66,0.00,,,0.00,meteohub,2013-05-31 20:42:00,
2013-05-31 21:47:00,53.8,42.6,30.34,WNW,294,2.0,8.0,66,0.00,,,0.00,meteohub,2013-05-31 20:47:00,
2013-05-31 21:52:00,53.4,42.8,30.34,WNW,287,5.0,8.0,67,0.00,,,0.00,meteohub,2013-05-31 20:52:00,
2013-05-31 21:57:00,53.2,43.0,30.34,WNW,290,2.0,8.0,68,0.00,,,0.00,meteohub,2013-05-31 20:57:00,
2013-05-31 22:02:00,53.2,43.7,30.35,WNW,297,8.0,10.0,70,0.00,,,0.00,meteohub,2013-05-31 21:02:00,
2013-05-31 22:07:00,53.1,44.2,30.35,WNW,292,4.0,11.0,72,0.00,,,0.00,meteohub,2013-05-31 21:07:00,
2013-05-31 22:12:00,53.1,44.6,30.35,WNW,296,2.0,11.0,73,0.00,,,0.00,meteohub,2013-05-31 21:12:00,
2013-05-31 22:17:00,53.1,44.6,30.35,WNW,300,2.0,11.0,73,0.00,,,0.00,meteohub,2013-05-31 21:17:00,
2013-05-31 22:22:00,52.9,44.8,30.35,WSW,254,2.0,10.0,74,0.00,,,0.00,meteohub,2013-05-31 21:22:00,
2013-05-31 22:27:00,52.5,44.8,30.35,WNW,298,6.0,10.0,75,0.00,,,0.00,meteohub,2013-05-31 21:27:00,
2013-05-31 22:32:00,52.5,45.1,30.35,WNW,283,2.0,10.0,76,0.00,,,0.00,meteohub,2013-05-31 21:32:00,
2013-05-31 22:37:00,52.3,45.3,30.35,West,277,10.0,10.0,77,0.00,,,0.00,meteohub,2013-05-31 21:37:00,
2013-05-31 22:42:00,52.3,45.3,30.35,WSW,254,2.0,13.0,77,0.00,,,0.00,meteohub,2013-05-31 21:42:00,
2013-05-31 22:47:00,52.2,45.1,30.35,WNW,290,5.0,13.0,77,0.00,,,0.00,meteohub,2013-05-31 21:47:00,
2013-05-31 22:52:00,52.2,45.1,30.35,WNW,295,4.0,13.0,77,0.00,,,0.00,meteohub,2013-05-31 21:52:00,
2013-05-31 22:57:00,52.2,45.1,30.35,NW,305,2.0,11.0,77,0.00,,,0.00,meteohub,2013-05-31 21:57:00,
2013-05-31 23:02:00,52.2,45.1,30.35,WNW,298,5.0,10.0,77,0.00,,,0.00,meteohub,2013-05-31 22:02:00,
2013-05-31 23:07:00,52.2,44.8,30.35,WNW,296,4.0,10.0,76,0.00,,,0.00,meteohub,2013-05-31 22:07:00,
2013-05-31 23:12:00,52.2,44.8,30.35,WNW,289,4.0,9.0,76,0.00,,,0.00,meteohub,2013-05-31 22:12:00,
2013-05-31 23:17:00,52.2,44.4,30.35,WNW,294,1.0,8.0,75,0.00,,,0.00,meteohub,2013-05-31 22:17:00,
2013-05-31 23:22:00,52.3,44.6,30.35,WNW,294,2.0,9.0,75,0.00,,,0.00,meteohub,2013-05-31 22:22:00,
2013-05-31 23:27:00,52.3,44.6,30.35,WNW,295,5.0,9.0,75,0.00,,,0.00,meteohub,2013-05-31 22:27:00,
2013-05-31 23:32:00,52.5,44.8,30.35,NNW,328,5.0,10.0,75,0.00,,,0.00,meteohub,2013-05-31 22:32:00,
2013-05-31 23:37:00,52.5,44.8,30.35,NW,306,2.0,10.0,75,0.00,,,0.00,meteohub,2013-05-31 22:37:00,
2013-05-31 23:42:00,52.5,44.8,30.35,WNW,298,1.0,10.0,75,0.00,,,0.00,meteohub,2013-05-31 22:42:00,
2013-05-31 23:47:00,52.5,44.8,30.35,NW,308,2.0,9.0,75,0.00,,,0.00,meteohub,2013-05-31 22:47:00,
2013-05-31 23:52:00,52.9,45.5,30.35,WNW,300,2.0,6.0,76,0.00,,,0.00,meteohub,2013-05-31 22:52:00,
2013-05-31 23:57:00,52.9,45.9,30.35,NW,308,4.0,5.0,77,0.00,,,0.00,meteohub,2013-05-31 22:57:00,